Time;durP1;ratioP1;P1;durP2;ratioP2;P2;SDS_P1;SDS_P2;PMS_P1;PMS_P2;Temp;Humidity;BMP_temperature;BMP_pressure;BME280_temperature;BME280_humidity;BME280_pressure;Samples;Min_cycle;Max_cycle;Signal;HPM_P1;HPM_P2
2022/08/12 00:44:54;;;;;;;;;;;;;;;19.70;100.00;102020.63;2614644;36;19958;-50
2022/08/12 00:47:23;;;;;;;;;;;;;;;19.68;100.00;102017.22;2613699;36;19981;-59
2022/08/12 00:49:51;;;;;;;;;;;;;;;19.72;100.00;102018.59;2612638;36;20001;-51
2022/08/12 00:52:19;;;;;;;;;;;;;;;19.74;100.00;102024.75;2614302;31;20014;-54
2022/08/12 00:54:49;;;;;;;;;;;;;;;19.68;100.00;102025.41;2614060;36;19939;-49
2022/08/12 00:57:19;;;;;;;;;;;;;;;19.73;100.00;102028.50;2615723;36;19985;-51
2022/08/12 00:59:51;;;;;;;;;;;;;;;19.66;100.00;102022.84;2614416;36;20329;-52
2022/08/12 01:02:24;;;;;;;;;;;;;;;19.67;100.00;102023.69;2615281;31;20526;-50
2022/08/12 01:12:59;;;;;;;;;;;;;;;19.60;100.00;102018.91;2607305;36;19953;-48
2022/08/12 01:15:30;;;;;;;;;;;;;;;19.53;100.00;102017.88;2614440;31;19957;-49
2022/08/12 01:17:58;;;;;;;;;;;;;;;19.53;100.00;102015.13;2615019;36;19950;-51
2022/08/12 01:20:34;;;;;;;;;;;;;;;19.56;100.00;102023.00;2612719;36;19982;-51
2022/08/12 01:23:20;;;;;;;;;;;;;;;19.47;100.00;102021.28;2613208;36;19980;-52
2022/08/12 01:25:51;;;;;;;;;;;;;;;19.46;100.00;102016.81;2614802;36;19942;-51
2022/08/12 01:28:21;;;;;;;;;;;;;;;19.48;100.00;102024.84;2614466;36;19973;-52
2022/08/12 01:30:50;;;;;;;;;;;;;;;19.58;100.00;102026.44;2613939;36;19951;-53
2022/08/12 01:33:20;;;;;;;;;;;;;;;19.57;100.00;102023.88;2613722;31;20022;-49
2022/08/12 01:35:52;;;;;;;;;;;;;;;19.52;100.00;102020.78;2614941;31;19977;-51
2022/08/12 01:38:21;;;;;;;;;;;;;;;19.44;100.00;102025.19;2614042;36;19939;-50
2022/08/12 01:40:53;;;;;;;;;;;;;;;19.44;100.00;102024.34;2614350;36;20439;-50
2022/08/12 01:43:23;;;;;;;;;;;;;;;19.42;100.00;102023.66;2613285;36;20372;-49
2022/08/12 01:46:00;;;;;;;;;;;;;;;19.30;100.00;102027.69;2615263;31;19994;-51
2022/08/12 01:48:38;;;;;;;;;;;;;;;19.24;100.00;102019.16;2614605;36;20386;-49
2022/08/12 01:51:21;;;;;;;;;;;;;;;19.33;100.00;102025.50;2615135;36;19943;-53
2022/08/12 01:53:57;;;;;;;;;;;;;;;19.37;100.00;102020.56;2614737;36;19981;-50
2022/08/12 01:56:33;;;;;;;;;;;;;;;19.28;100.00;102022.41;2614064;36;19950;-55
2022/08/12 02:01:46;;;;;;;;;;;;;;;19.15;100.00;102016.56;2614889;36;19951;-49
2022/08/12 02:12:40;;;;;;;;;;;;;;;19.24;100.00;102005.53;2614200;36;19950;-53
2022/08/12 02:15:21;;;;;;;;;;;;;;;19.15;100.00;102006.50;2615290;36;19958;-51
2022/08/12 02:17:55;;;;;;;;;;;;;;;19.06;100.00;102010.22;2605756;36;19946;-52
2022/08/12 02:20:30;;;;;;;;;;;;;;;19.08;100.00;102010.94;2614647;36;19950;-51
2022/08/12 02:22:59;;;;;;;;;;;;;;;19.09;100.00;102007.16;2615041;36;19962;-50
2022/08/12 02:25:29;;;;;;;;;;;;;;;19.04;100.00;102012.25;2614270;36;20290;-50
2022/08/12 02:28:00;;;;;;;;;;;;;;;19.07;100.00;102003.75;2614385;36;19957;-48
2022/08/12 02:30:30;;;;;;;;;;;;;;;19.09;100.00;102009.88;2614586;36;20403;-48
2022/08/12 02:32:59;;;;;;;;;;;;;;;19.04;100.00;102009.53;2613262;36;19954;-50
2022/08/12 02:35:28;;;;;;;;;;;;;;;18.95;100.00;102008.66;2613532;36;19954;-50
2022/08/12 02:37:57;;;;;;;;;;;;;;;18.94;100.00;102006.09;2614036;36;19946;-50
2022/08/12 02:40:26;;;;;;;;;;;;;;;18.87;100.00;101995.81;2613416;36;19966;-50
2022/08/12 02:42:56;;;;;;;;;;;;;;;18.93;100.00;102002.47;2614667;36;19985;-50
2022/08/12 02:45:33;;;;;;;;;;;;;;;18.93;100.00;101994.28;2613228;36;19950;-52
2022/08/12 02:48:05;;;;;;;;;;;;;;;18.90;100.00;101995.50;2611860;36;19950;-48
2022/08/12 02:50:35;;;;;;;;;;;;;;;18.83;100.00;101994.41;2615174;31;20443;-50
2022/08/12 02:53:04;;;;;;;;;;;;;;;18.90;100.00;101990.03;2613240;36;19950;-50
2022/08/12 02:55:34;;;;;;;;;;;;;;;18.85;100.00;101989.63;2612603;36;19946;-52
2022/08/12 02:58:03;;;;;;;;;;;;;;;18.89;100.00;101993.78;2613169;36;20437;-49
2022/08/12 03:00:34;;;;;;;;;;;;;;;18.82;100.00;101981.78;2614627;36;19985;-51
2022/08/12 03:03:06;;;;;;;;;;;;;;;18.81;100.00;101990.97;2609912;36;19983;-48
2022/08/12 03:05:35;;;;;;;;;;;;;;;18.70;100.00;101989.38;2613851;36;20364;-50
2022/08/12 03:08:04;;;;;;;;;;;;;;;18.68;100.00;101979.66;2613931;36;19969;-51
2022/08/12 03:10:38;;;;;;;;;;;;;;;18.71;100.00;101979.31;2614661;36;19957;-51
2022/08/12 03:13:07;;;;;;;;;;;;;;;18.59;100.00;101980.63;2614026;31;19973;-51
2022/08/12 03:15:39;;;;;;;;;;;;;;;18.63;100.00;101987.47;2615114;36;20396;-49
2022/08/12 03:18:11;;;;;;;;;;;;;;;18.66;100.00;101981.69;2612754;36;19969;-51
2022/08/12 03:20:40;;;;;;;;;;;;;;;18.56;100.00;101977.22;2614339;36;19989;-50
2022/08/12 03:23:12;;;;;;;;;;;;;;;18.59;100.00;101981.47;2614980;36;19946;-50
2022/08/12 03:25:41;;;;;;;;;;;;;;;18.43;100.00;101982.22;2614729;36;19943;-50
2022/08/12 03:28:10;;;;;;;;;;;;;;;18.37;100.00;101986.47;2613990;36;19947;-49
2022/08/12 03:30:41;;;;;;;;;;;;;;;18.34;100.00;101988.66;2613188;36;19947;-51
2022/08/12 03:33:13;;;;;;;;;;;;;;;18.32;100.00;101991.53;2614331;36;19954;-51
2022/08/12 03:35:45;;;;;;;;;;;;;;;18.36;100.00;101981.19;2614802;36;20032;-50
2022/08/12 03:38:15;;;;;;;;;;;;;;;18.38;100.00;101988.16;2614258;36;20132;-49
2022/08/12 04:02:28;;;;;;;;;;;;;;;17.91;100.00;101987.66;2613070;36;19951;-57
2022/08/12 04:04:57;;;;;;;;;;;;;;;17.91;100.00;101983.03;2612440;36;19970;-52
2022/08/12 04:07:25;;;;;;;;;;;;;;;17.85;100.00;101987.22;2612996;36;19958;-50
2022/08/12 04:09:53;;;;;;;;;;;;;;;17.80;100.00;101981.41;2612531;36;19961;-49
2022/08/12 04:15:02;;;;;;;;;;;;;;;17.73;100.00;101979.47;2614660;36;19976;-49
2022/08/12 04:17:33;;;;;;;;;;;;;;;17.88;100.00;101974.31;2614684;36;19950;-50
2022/08/12 04:20:01;;;;;;;;;;;;;;;17.79;100.00;101979.66;2613869;36;20427;-53
2022/08/12 04:22:29;;;;;;;;;;;;;;;17.78;100.00;101979.84;2611608;36;19954;-52
2022/08/12 04:25:00;;;;;;;;;;;;;;;17.75;100.00;101978.25;2614016;36;20435;-48
2022/08/12 04:27:30;;;;;;;;;;;;;;;17.83;100.00;101966.63;2614069;31;19965;-48
2022/08/12 04:29:58;;;;;;;;;;;;;;;17.79;100.00;101974.22;2613829;36;19950;-50
2022/08/12 04:32:26;;;;;;;;;;;;;;;17.77;100.00;101969.94;2613405;31;20440;-51
2022/08/12 04:34:57;;;;;;;;;;;;;;;17.91;100.00;101968.56;2612892;36;19973;-49
2022/08/12 04:37:25;;;;;;;;;;;;;;;17.78;100.00;101967.06;2614562;36;20444;-52
2022/08/12 04:39:54;;;;;;;;;;;;;;;17.67;100.00;101970.88;2614145;36;19950;-47
2022/08/12 04:42:24;;;;;;;;;;;;;;;17.69;100.00;101962.56;2613970;36;20005;-53
2022/08/12 04:44:52;;;;;;;;;;;;;;;17.63;100.00;101968.63;2612715;36;20443;-49
2022/08/12 04:47:22;;;;;;;;;;;;;;;17.60;100.00;101969.78;2613917;36;20343;-48
2022/08/12 04:49:50;;;;;;;;;;;;;;;17.64;100.00;101971.19;2614204;36;19939;-52
2022/08/12 04:52:20;;;;;;;;;;;;;;;17.69;100.00;101968.84;2613827;36;19957;-48
2022/08/12 04:54:49;;;;;;;;;;;;;;;17.69;100.00;101970.72;2611995;36;19954;-50
2022/08/12 04:57:17;;;;;;;;;;;;;;;17.81;100.00;101965.91;2614506;36;20355;-48
2022/08/12 04:59:45;;;;;;;;;;;;;;;17.88;100.00;101977.03;2614429;36;20443;-47
2022/08/12 05:02:13;;;;;;;;;;;;;;;17.79;100.00;101974.22;2611745;36;19954;-48
2022/08/12 05:04:42;;;;;;;;;;;;;;;17.75;100.00;101974.69;2613366;36;19950;-51
2022/08/12 05:07:11;;;;;;;;;;;;;;;17.80;100.00;101973.22;2615183;31;20494;-52
2022/08/12 05:09:42;;;;;;;;;;;;;;;17.81;100.00;101976.78;2614049;36;19978;-53
2022/08/12 05:12:10;;;;;;;;;;;;;;;17.83;100.00;101975.63;2613097;36;19954;-53
2022/08/12 05:14:38;;;;;;;;;;;;;;;17.85;100.00;101973.59;2613239;36;19989;-48
2022/08/12 05:17:08;;;;;;;;;;;;;;;17.85;100.00;101970.88;2607299;36;19950;-49
2022/08/12 05:19:36;;;;;;;;;;;;;;;17.95;100.00;101975.44;2614222;36;19951;-48
2022/08/12 05:22:04;;;;;;;;;;;;;;;18.03;100.00;101968.19;2613238;36;20101;-48
2022/08/12 05:24:32;;;;;;;;;;;;;;;18.01;100.00;101969.34;2614626;31;20505;-49
2022/08/12 05:27:03;;;;;;;;;;;;;;;18.19;100.00;101969.31;2614150;36;20402;-48
2022/08/12 05:29:31;;;;;;;;;;;;;;;18.14;100.00;101971.66;2613882;36;19946;-50
2022/08/12 05:31:59;;;;;;;;;;;;;;;18.14;100.00;101961.59;2613817;36;19982;-48
2022/08/12 05:34:31;;;;;;;;;;;;;;;18.18;100.00;101973.91;2614229;36;19966;-50
2022/08/12 05:36:59;;;;;;;;;;;;;;;18.34;100.00;101964.13;2613860;36;19946;-49
2022/08/12 05:39:27;;;;;;;;;;;;;;;18.24;100.00;101971.53;2614625;36;19981;-49
2022/08/12 05:41:56;;;;;;;;;;;;;;;18.33;100.00;101976.03;2614062;36;19974;-51
2022/08/12 05:44:27;;;;;;;;;;;;;;;18.44;100.00;101983.09;2614489;36;19954;-51
2022/08/12 05:46:55;;;;;;;;;;;;;;;18.47;100.00;101983.63;2614147;36;19981;-52
2022/08/12 05:49:23;;;;;;;;;;;;;;;18.48;100.00;101988.06;2614072;36;20355;-51
2022/08/12 05:51:51;;;;;;;;;;;;;;;18.53;100.00;101988.44;2615097;36;19985;-52
2022/08/12 05:54:19;;;;;;;;;;;;;;;18.53;100.00;101991.16;2613634;36;19970;-48
2022/08/12 05:56:47;;;;;;;;;;;;;;;18.59;100.00;101986.94;2613502;36;19966;-50
2022/08/12 05:59:15;;;;;;;;;;;;;;;18.59;100.00;101986.09;2613967;36;19954;-49
2022/08/12 06:01:46;;;;;;;;;;;;;;;18.63;100.00;101990.19;2613055;36;20368;-52
2022/08/12 06:04:14;;;;;;;;;;;;;;;18.72;100.00;101986.50;2613620;36;19946;-50
2022/08/12 06:06:50;;;;;;;;;;;;;;;18.96;100.00;101988.50;2614537;31;20469;-50
2022/08/12 06:09:18;;;;;;;;;;;;;;;18.96;100.00;101987.66;2613494;36;20030;-51
2022/08/12 06:11:46;;;;;;;;;;;;;;;19.01;100.00;101990.78;2613424;31;19947;-51
2022/08/12 06:14:14;;;;;;;;;;;;;;;18.96;100.00;101984.94;2613020;36;19950;-51
2022/08/12 06:16:42;;;;;;;;;;;;;;;18.97;100.00;101983.91;2614446;36;19947;-49
2022/08/12 06:19:14;;;;;;;;;;;;;;;18.94;100.00;101978.81;2614676;36;20359;-49
2022/08/12 06:21:42;;;;;;;;;;;;;;;19.00;100.00;101980.88;2614320;36;20452;-48
2022/08/12 06:24:13;;;;;;;;;;;;;;;19.20;100.00;101978.72;2612537;31;19946;-50
2022/08/12 06:26:40;;;;;;;;;;;;;;;19.36;100.00;101976.03;2614287;36;19950;-49
2022/08/12 06:29:09;;;;;;;;;;;;;;;19.33;100.00;101978.22;2613124;36;19971;-46
2022/08/12 06:31:37;;;;;;;;;;;;;;;19.32;100.00;101980.13;2611640;36;19950;-50
2022/08/12 06:34:05;;;;;;;;;;;;;;;19.39;100.00;101975.69;2611565;36;19951;-50
2022/08/12 06:36:35;;;;;;;;;;;;;;;19.70;100.00;101975.06;2610406;36;20074;-52
2022/08/12 06:39:04;;;;;;;;;;;;;;;19.73;100.00;101980.19;2612718;36;19957;-51
2022/08/12 06:44:19;;;;;;;;;;;;;;;19.90;100.00;101967.41;2614631;36;19953;-48
2022/08/12 06:46:48;;;;;;;;;;;;;;;20.10;100.00;101975.28;2613320;36;20089;-48
2022/08/12 06:49:16;;;;;;;;;;;;;;;20.45;100.00;101967.69;2612855;36;19973;-49
2022/08/12 06:51:47;;;;;;;;;;;;;;;21.05;100.00;101968.19;2614933;36;19955;-52
2022/08/12 06:54:15;;;;;;;;;;;;;;;21.21;100.00;101968.13;2610504;36;20464;-52
2022/08/12 06:56:43;;;;;;;;;;;;;;;21.51;100.00;101965.59;2610496;36;20192;-50
2022/08/12 06:59:14;;;;;;;;;;;;;;;21.42;100.00;101969.34;2612969;36;20489;-52
2022/08/12 07:01:42;;;;;;;;;;;;;;;21.77;100.00;101972.56;2614448;36;20443;-50
2022/08/12 07:04:10;;;;;;;;;;;;;;;22.11;100.00;101974.00;2614158;36;19951;-50
2022/08/12 07:06:38;;;;;;;;;;;;;;;22.27;100.00;101956.53;2613570;36;20467;-49
2022/08/12 07:09:09;;;;;;;;;;;;;;;22.55;100.00;101954.03;2614433;36;19946;-49
2022/08/12 07:11:39;;;;;;;;;;;;;;;22.54;100.00;101957.81;2613828;36;19958;-51
2022/08/12 07:14:08;;;;;;;;;;;;;;;22.86;100.00;101956.56;2611229;31;19985;-53
2022/08/12 07:19:16;;;;;;;;;;;;;;;23.11;100.00;101958.19;2613128;36;19950;-52
2022/08/12 07:21:44;;;;;;;;;;;;;;;23.20;100.00;101962.50;2614406;31;19977;-53
2022/08/12 07:24:15;;;;;;;;;;;;;;;23.49;100.00;101960.72;2611922;36;19950;-53
2022/08/12 07:26:43;;;;;;;;;;;;;;;23.74;100.00;101962.03;2613681;36;20435;-57
2022/08/12 07:29:13;;;;;;;;;;;;;;;23.84;100.00;101956.19;2614802;36;19943;-52
2022/08/12 07:31:41;;;;;;;;;;;;;;;24.05;100.00;101949.84;2612548;36;20442;-53
2022/08/12 07:34:09;;;;;;;;;;;;;;;24.50;100.00;101957.78;2606030;36;19958;-49
2022/08/12 07:36:38;;;;;;;;;;;;;;;24.63;100.00;101948.78;2614060;36;20302;-53
2022/08/12 07:39:06;;;;;;;;;;;;;;;24.77;100.00;101953.31;2613267;36;20448;-55
2022/08/12 07:41:37;;;;;;;;;;;;;;;24.43;100.00;101951.41;2612739;31;20041;-53
2022/08/12 07:44:06;;;;;;;;;;;;;;;24.60;100.00;101950.06;2614159;36;20321;-53
2022/08/12 07:46:39;;;;;;;;;;;;;;;24.84;100.00;101951.44;2615420;39;20364;-54
2022/08/12 07:49:08;;;;;;;;;;;;;;;25.53;100.00;101957.00;2614795;36;19950;-53
2022/08/12 07:51:36;;;;;;;;;;;;;;;25.92;100.00;101960.00;2614881;31;20324;-52
2022/08/12 07:54:08;;;;;;;;;;;;;;;26.14;94.62;101955.16;2613820;36;19977;-52
2022/08/12 07:56:39;;;;;;;;;;;;;;;26.12;94.29;101958.13;2613783;36;20045;-52
2022/08/12 07:59:08;;;;;;;;;;;;;;;26.30;95.14;101951.94;2614763;36;19950;-54
2022/08/12 08:01:37;;;;;;;;;;;;;;;26.32;100.00;101962.75;2614020;36;19950;-54
2022/08/12 08:06:46;;;;;;;;;;;;;;;27.05;80.56;101950.69;2613674;36;20440;-54
2022/08/12 08:09:15;;;;;;;;;;;;;;;27.16;90.26;101955.50;2615462;36;20355;-53
2022/08/12 08:14:27;;;;;;;;;;;;;;;27.42;71.13;101962.00;2613838;36;20002;-53
2022/08/12 08:16:55;;;;;;;;;;;;;;;27.23;71.71;101952.72;2610253;36;20351;-53
2022/08/12 08:19:24;;;;;;;;;;;;;;;27.02;72.40;101959.41;2608548;36;20448;-51
2022/08/12 08:21:53;;;;;;;;;;;;;;;27.35;76.28;101962.00;2609489;36;20455;-52
2022/08/12 08:24:23;;;;;;;;;;;;;;;27.26;65.84;101950.34;2612200;31;20395;-52
2022/08/12 08:26:55;;;;;;;;;;;;;;;27.71;79.32;101956.88;2613376;36;19950;-56
2022/08/12 08:29:24;;;;;;;;;;;;;;;27.95;70.21;101953.28;2612481;36;19946;-50
2022/08/12 08:31:53;;;;;;;;;;;;;;;28.00;70.15;101954.56;2609935;36;20036;-53
2022/08/12 08:34:25;;;;;;;;;;;;;;;28.12;82.77;101956.38;2611000;36;19997;-50
2022/08/12 08:36:53;;;;;;;;;;;;;;;28.25;83.73;101963.72;2610645;36;19955;-52
2022/08/12 08:39:23;;;;;;;;;;;;;;;28.05;96.42;101960.28;2611751;36;19952;-53
2022/08/12 08:44:36;;;;;;;;;;;;;;;28.24;92.60;101956.47;2627614;36;19951;-55
2022/08/12 08:47:04;;;;;;;;;;;;;;;28.49;96.68;101953.66;2610124;36;19958;-53
2022/08/12 08:49:33;;;;;;;;;;;;;;;28.46;93.94;101959.66;2611255;31;20469;-53
2022/08/12 08:52:01;;;;;;;;;;;;;;;28.23;100.00;101954.78;2610248;31;19950;-54
2022/08/12 08:54:32;;;;;;;;;;;;;;;28.38;100.00;101956.34;2611009;36;20439;-50
2022/08/12 08:57:03;;;;;;;;;;;;;;;28.35;100.00;101952.09;2610595;36;19961;-53
2022/08/12 08:59:31;;;;;;;;;;;;;;;28.56;100.00;101953.56;2610916;36;19957;-54
2022/08/12 09:01:59;;;;;;;;;;;;;;;28.81;100.00;101955.44;2611416;36;19954;-54
2022/08/12 09:04:27;;;;;;;;;;;;;;;28.57;93.90;101955.25;2610988;36;20097;-52
2022/08/12 09:06:57;;;;;;;;;;;;;;;28.51;99.66;101952.59;2610603;36;19950;-56
2022/08/12 09:09:26;;;;;;;;;;;;;;;28.67;91.02;101955.59;2610465;31;19957;-54
2022/08/12 09:14:41;;;;;;;;;;;;;;;28.86;91.01;101958.38;2612121;36;19946;-56
2022/08/12 09:17:12;;;;;;;;;;;;;;;28.93;84.15;101953.59;2611277;36;19950;-51
2022/08/12 09:19:40;;;;;;;;;;;;;;;29.15;80.83;101944.78;2610026;36;19969;-54
2022/08/12 09:22:09;;;;;;;;;;;;;;;29.14;77.11;101943.94;2610443;36;19977;-51
2022/08/12 09:24:38;;;;;;;;;;;;;;;29.53;74.11;101946.38;2611615;36;19950;-50
2022/08/12 09:27:07;;;;;;;;;;;;;;;29.75;77.08;101955.00;2611251;36;20355;-55
2022/08/12 09:29:37;;;;;;;;;;;;;;;29.61;65.16;101950.72;2609523;36;19958;-54
2022/08/12 09:32:06;;;;;;;;;;;;;;;29.64;63.33;101953.06;2610642;31;20510;-54
2022/08/12 09:34:35;;;;;;;;;;;;;;;29.92;64.54;101944.09;2610892;36;19954;-54
2022/08/12 09:37:03;;;;;;;;;;;;;;;29.64;63.64;101953.91;2609697;36;19947;-53
2022/08/12 09:39:31;;;;;;;;;;;;;;;30.07;62.23;101940.84;2610641;36;19969;-51
2022/08/12 09:47:28;;;;;;;;;;;;;;;30.07;57.29;101940.00;2604405;36;19946;-57
2022/08/12 09:49:56;;;;;;;;;;;;;;;30.13;56.87;101937.09;2611123;36;21804;-53
2022/08/12 09:52:24;;;;;;;;;;;;;;;29.64;58.75;101926.16;2611047;36;19954;-54
2022/08/12 09:54:52;;;;;;;;;;;;;;;30.27;61.07;101926.59;2612090;31;20379;-53
2022/08/12 09:57:21;;;;;;;;;;;;;;;30.48;55.88;101925.13;2613706;36;19998;-56
2022/08/12 09:59:51;;;;;;;;;;;;;;;30.47;48.70;101917.88;2611043;36;19954;-56
2022/08/12 10:02:20;;;;;;;;;;;;;;;30.68;52.71;101915.53;2610408;36;19951;-55
2022/08/12 10:04:48;;;;;;;;;;;;;;;30.41;51.34;101916.09;2609698;36;19973;-53
2022/08/12 10:07:16;;;;;;;;;;;;;;;30.64;47.21;101906.88;2608503;36;19946;-55
2022/08/12 10:09:44;;;;;;;;;;;;;;;30.68;50.56;101904.44;2611213;36;19946;-54
2022/08/12 10:14:55;;;;;;;;;;;;;;;31.04;45.22;101894.91;2608408;36;19946;-52
2022/08/12 10:17:23;;;;;;;;;;;;;;;31.22;46.06;101901.34;2610501;31;19947;-53
2022/08/12 10:19:54;;;;;;;;;;;;;;;31.47;44.42;101903.75;2609902;31;19954;-52
2022/08/12 10:22:22;;;;;;;;;;;;;;;31.39;42.93;101896.66;2610890;36;20446;-52
2022/08/12 10:29:35;;;;;;;;;;;;;;;31.49;42.16;101889.56;2613511;36;19946;-52
2022/08/12 10:30:22;;;;;;;;;;;;;;;31.83;43.03;101879.28;2611747;36;19954;-52
2022/08/12 10:32:56;;;;;;;;;;;;;;;31.36;44.80;101886.03;2613230;36;19962;-50
2022/08/12 10:35:31;;;;;;;;;;;;;;;31.62;41.02;101889.28;2611354;36;19973;-54
2022/08/12 10:38:01;;;;;;;;;;;;;;;31.86;44.17;101886.31;2613399;31;20355;-53
2022/08/12 10:40:29;;;;;;;;;;;;;;;32.11;43.75;101871.91;2614061;36;19950;-54
2022/08/12 10:45:41;;;;;;;;;;;;;;;32.39;40.05;101859.81;2609068;31;19950;-53
2022/08/12 10:48:09;;;;;;;;;;;;;;;32.38;40.23;101869.25;2602935;31;20022;-50
2022/08/12 10:50:37;;;;;;;;;;;;;;;32.18;41.20;101863.41;2611450;31;20449;-51
2022/08/12 10:53:09;;;;;;;;;;;;;;;32.11;39.73;101858.88;2611124;36;19950;-50
2022/08/12 10:55:37;;;;;;;;;;;;;;;32.39;40.54;101854.25;2606503;36;19953;-50
2022/08/12 10:58:06;;;;;;;;;;;;;;;32.53;43.75;101849.09;2612550;36;19950;-54
2022/08/12 11:00:37;;;;;;;;;;;;;;;32.72;45.31;101841.25;2612969;36;19954;-50
2022/08/12 11:03:08;;;;;;;;;;;;;;;32.70;42.14;101842.63;2613305;36;20673;-51
2022/08/12 11:05:36;;;;;;;;;;;;;;;32.86;40.42;101829.69;2614128;36;20452;-49
2022/08/12 11:08:05;;;;;;;;;;;;;;;32.66;40.14;101839.50;2614535;36;19951;-53
2022/08/12 11:10:33;;;;;;;;;;;;;;;33.09;38.42;101843.31;2614262;36;20409;-52
2022/08/12 11:13:01;;;;;;;;;;;;;;;32.99;39.36;101832.06;2614202;36;19989;-54
2022/08/12 11:15:29;;;;;;;;;;;;;;;33.21;34.08;101832.00;2614730;36;20428;-52
2022/08/12 11:17:57;;;;;;;;;;;;;;;33.14;33.48;101837.78;2614008;36;19956;-50
2022/08/12 11:20:27;;;;;;;;;;;;;;;33.43;32.59;101826.34;2613301;36;20357;-51
2022/08/12 11:22:59;;;;;;;;;;;;;;;33.39;34.75;101821.56;2613877;31;19950;-52
2022/08/12 11:25:27;;;;;;;;;;;;;;;33.43;36.26;101817.97;2613533;36;19958;-54
2022/08/12 11:27:55;;;;;;;;;;;;;;;33.48;32.86;101815.22;2612400;36;19985;-52
2022/08/12 11:30:24;;;;;;;;;;;;;;;33.23;31.42;101806.63;2613891;36;20562;-51
2022/08/12 11:32:52;;;;;;;;;;;;;;;33.23;31.91;101806.63;2615403;31;20421;-53
2022/08/12 11:35:20;;;;;;;;;;;;;;;33.42;31.52;101813.50;2615024;36;19958;-48
2022/08/12 11:37:51;;;;;;;;;;;;;;;33.21;32.56;101808.88;2613847;36;19959;-54
2022/08/12 11:40:19;;;;;;;;;;;;;;;33.62;33.70;101807.22;2613693;36;20008;-50
2022/08/12 11:42:47;;;;;;;;;;;;;;;33.75;34.22;101813.47;2614581;36;19954;-51
2022/08/12 11:45:15;;;;;;;;;;;;;;;33.59;32.72;101801.34;2615347;36;19994;-55
2022/08/12 11:47:43;;;;;;;;;;;;;;;33.85;31.14;101797.63;2614189;36;19974;-54
2022/08/12 11:50:11;;;;;;;;;;;;;;;33.59;32.08;101798.53;2614066;36;19977;-53
2022/08/12 11:52:39;;;;;;;;;;;;;;;33.84;31.18;101795.09;2614703;36;20451;-52
2022/08/12 11:55:11;;;;;;;;;;;;;;;33.85;34.45;101799.59;2614650;36;20035;-50
2022/08/12 11:57:48;;;;;;;;;;;;;;;34.01;31.94;101790.16;2613943;36;19997;-53
2022/08/12 12:00:16;;;;;;;;;;;;;;;34.21;33.03;101782.97;2607886;36;19950;-54
2022/08/12 12:02:44;;;;;;;;;;;;;;;33.72;32.01;101786.91;2613713;36;20359;-49
2022/08/12 12:05:14;;;;;;;;;;;;;;;33.86;35.11;101788.13;2610985;36;19989;-52
2022/08/12 12:07:43;;;;;;;;;;;;;;;34.57;36.85;101775.56;2611722;36;20344;-52
2022/08/12 12:10:14;;;;;;;;;;;;;;;34.39;31.40;101776.06;2611483;36;20325;-49
2022/08/12 12:12:42;;;;;;;;;;;;;;;34.48;31.78;101776.38;2614551;36;19955;-54
2022/08/12 12:15:12;;;;;;;;;;;;;;;34.24;32.25;101782.41;2611902;36;20456;-51
2022/08/12 12:17:41;;;;;;;;;;;;;;;34.13;32.69;101781.56;2613387;36;19947;-56
2022/08/12 12:20:10;;;;;;;;;;;;;;;34.05;37.81;101782.06;2612628;36;19981;-51
2022/08/12 12:22:38;;;;;;;;;;;;;;;34.53;37.96;101771.63;2611870;36;19982;-49
2022/08/12 12:25:07;;;;;;;;;;;;;;;34.60;32.81;101773.31;2612523;36;19954;-52
2022/08/12 12:27:50;;;;;;;;;;;;;;;34.48;32.28;101782.81;2612385;36;19953;-55
2022/08/12 12:30:21;;;;;;;;;;;;;;;34.79;33.12;101774.53;2612808;36;19954;-53
2022/08/12 12:32:49;;;;;;;;;;;;;;;34.88;32.61;101766.38;2611573;36;19962;-49
2022/08/12 12:35:17;;;;;;;;;;;;;;;34.62;33.36;101776.69;2612122;36;20381;-53
2022/08/12 12:37:52;;;;;;;;;;;;;;;34.66;33.24;101772.22;2611691;36;19954;-54
2022/08/12 12:40:20;;;;;;;;;;;;;;;35.01;37.86;101762.22;2612358;36;20327;-52
2022/08/12 12:42:48;;;;;;;;;;;;;;;35.47;28.90;101758.56;2612021;31;19973;-51
2022/08/12 12:45:17;;;;;;;;;;;;;;;35.24;29.75;101752.41;2612129;36;19954;-52
2022/08/12 12:48:00;;;;;;;;;;;;;;;34.56;33.26;101759.91;2610325;36;20431;-56
2022/08/12 12:50:29;;;;;;;;;;;;;;;34.43;30.87;101754.03;2611684;36;19955;-53
2022/08/12 12:52:58;;;;;;;;;;;;;;;34.36;33.19;101752.31;2611482;36;20002;-54
2022/08/12 12:55:26;;;;;;;;;;;;;;;34.39;31.07;101753.72;2611971;36;19958;-49
2022/08/12 12:57:57;;;;;;;;;;;;;;;34.54;31.35;101745.38;2612863;36;19946;-49
2022/08/12 13:00:30;;;;;;;;;;;;;;;34.67;31.30;101748.72;2607378;36;19946;-51
2022/08/12 13:03:01;;;;;;;;;;;;;;;34.77;29.28;101745.13;2612429;36;19947;-53
2022/08/12 13:05:30;;;;;;;;;;;;;;;34.61;29.65;101735.88;2605387;36;20329;-51
2022/08/12 13:07:59;;;;;;;;;;;;;;;34.96;33.47;101743.47;2611217;36;20633;-53
2022/08/12 13:10:28;;;;;;;;;;;;;;;34.97;30.71;101721.91;2611868;36;19962;-51
2022/08/12 13:12:57;;;;;;;;;;;;;;;35.12;29.67;101735.09;2611685;36;19958;-52
2022/08/12 13:15:25;;;;;;;;;;;;;;;34.68;29.41;101733.66;2611605;36;19946;-49
2022/08/12 13:17:55;;;;;;;;;;;;;;;34.95;29.77;101732.56;2612506;36;20462;-55
2022/08/12 13:20:25;;;;;;;;;;;;;;;35.13;29.06;101740.41;2612239;36;20086;-50
2022/08/12 13:22:53;;;;;;;;;;;;;;;35.03;28.97;101730.03;2612970;36;19981;-50
2022/08/12 13:25:23;;;;;;;;;;;;;;;35.56;28.50;101729.69;2613569;36;19985;-53
2022/08/12 13:27:51;;;;;;;;;;;;;;;35.78;30.72;101725.72;2611588;36;19950;-53
2022/08/12 13:30:20;;;;;;;;;;;;;;;35.46;29.62;101735.31;2612213;36;20001;-51
2022/08/12 13:32:50;;;;;;;;;;;;;;;35.19;27.55;101718.81;2611691;31;19973;-50
2022/08/12 13:35:19;;;;;;;;;;;;;;;35.30;29.23;101730.88;2611861;36;20451;-55
2022/08/12 13:37:54;;;;;;;;;;;;;;;35.72;27.71;101721.22;2611805;36;19962;-49
2022/08/12 13:40:23;;;;;;;;;;;;;;;35.58;28.17;101737.81;2611269;36;19958;-52
2022/08/12 13:42:52;;;;;;;;;;;;;;;35.55;27.48;101730.81;2612035;36;20462;-52
2022/08/12 13:45:20;;;;;;;;;;;;;;;35.56;28.93;101721.31;2611589;31;19950;-53
2022/08/12 13:47:54;;;;;;;;;;;;;;;35.30;30.56;101725.28;2613510;36;20033;-50
2022/08/12 13:50:22;;;;;;;;;;;;;;;36.03;30.55;101721.13;2615502;36;19947;-49
2022/08/12 13:52:53;;;;;;;;;;;;;;;36.11;27.13;101712.13;2614161;36;19951;-52
2022/08/12 13:55:24;;;;;;;;;;;;;;;35.92;27.77;101715.56;2612583;36;19951;-53
2022/08/12 13:57:52;;;;;;;;;;;;;;;35.48;27.33;101719.06;2610547;36;19954;-55
2022/08/12 14:00:20;;;;;;;;;;;;;;;35.27;27.22;101710.69;2612640;36;19971;-49
2022/08/12 14:02:49;;;;;;;;;;;;;;;36.02;30.21;101703.50;2613156;36;19946;-53
2022/08/12 14:05:17;;;;;;;;;;;;;;;36.18;27.69;101695.84;2605861;36;20374;-54
2022/08/12 14:07:59;;;;;;;;;;;;;;;35.66;27.82;101703.63;2613342;31;20443;-51
2022/08/12 14:10:40;;;;;;;;;;;;;;;35.86;29.65;101694.31;2612210;36;19954;-51
2022/08/12 14:13:09;;;;;;;;;;;;;;;35.18;27.99;101705.97;2613893;36;19950;-51
2022/08/12 14:15:38;;;;;;;;;;;;;;;35.10;31.00;101696.16;2607624;36;20424;-54
2022/08/12 14:18:08;;;;;;;;;;;;;;;35.80;29.83;101689.88;2613815;36;19950;-50
2022/08/12 14:20:36;;;;;;;;;;;;;;;35.87;28.82;101682.00;2611526;36;20442;-50
2022/08/12 14:23:07;;;;;;;;;;;;;;;36.28;30.22;101689.38;2612539;36;19946;-55
2022/08/12 14:25:35;;;;;;;;;;;;;;;36.12;30.89;101677.38;2614386;36;19973;-51
2022/08/12 14:28:09;;;;;;;;;;;;;;;36.14;30.44;101677.94;2612807;36;20039;-52
2022/08/12 14:30:37;;;;;;;;;;;;;;;36.01;30.62;101668.19;2611731;31;19958;-52
2022/08/12 14:33:05;;;;;;;;;;;;;;;36.11;29.99;101670.09;2610472;36;19950;-52
2022/08/12 14:35:33;;;;;;;;;;;;;;;36.08;28.86;101674.31;2611421;36;20742;-51
2022/08/12 14:38:01;;;;;;;;;;;;;;;35.91;35.35;101673.84;2611147;36;20008;-50
2022/08/12 14:40:32;;;;;;;;;;;;;;;36.33;27.60;101663.28;2611732;36;19954;-52